sensor_id;sensor_type;location;lat;lon;timestamp;temperature;humidity
17381;DHT22;8808;52.478;13.378;2022-10-23T00:00:37;13.40;99.90
17381;DHT22;8808;52.478;13.378;2022-10-23T00:03:06;13.50;99.90
17381;DHT22;8808;52.478;13.378;2022-10-23T00:05:32;13.60;99.90
17381;DHT22;8808;52.478;13.378;2022-10-23T00:07:59;13.60;99.90
17381;DHT22;8808;52.478;13.378;2022-10-23T00:10:27;13.60;99.90
17381;DHT22;8808;52.478;13.378;2022-10-23T00:12:54;13.60;99.90
17381;DHT22;8808;52.478;13.378;2022-10-23T00:15:22;13.60;99.90
17381;DHT22;8808;52.478;13.378;2022-10-23T00:17:49;13.50;99.90
17381;DHT22;8808;52.478;13.378;2022-10-23T00:20:17;13.60;99.90
17381;DHT22;8808;52.478;13.378;2022-10-23T00:22:44;13.60;99.90
17381;DHT22;8808;52.478;13.378;2022-10-23T00:25:11;13.70;99.90
17381;DHT22;8808;52.478;13.378;2022-10-23T00:27:38;13.70;99.90
17381;DHT22;8808;52.478;13.378;2022-10-23T00:30:05;13.60;99.90
17381;DHT22;8808;52.478;13.378;2022-10-23T00:32:32;13.60;99.90
17381;DHT22;8808;52.478;13.378;2022-10-23T00:35:02;13.70;99.90
17381;DHT22;8808;52.478;13.378;2022-10-23T00:37:30;13.60;99.90
17381;DHT22;8808;52.478;13.378;2022-10-23T00:39:57;13.60;99.90
17381;DHT22;8808;52.478;13.378;2022-10-23T00:42:24;13.60;99.90
17381;DHT22;8808;52.478;13.378;2022-10-23T00:45:16;13.50;99.90
17381;DHT22;8808;52.478;13.378;2022-10-23T00:47:44;13.50;99.90
17381;DHT22;8808;52.478;13.378;2022-10-23T00:50:11;13.50;99.90
17381;DHT22;8808;52.478;13.378;2022-10-23T00:52:41;13.50;99.90
17381;DHT22;8808;52.478;13.378;2022-10-23T00:55:10;13.50;99.90
17381;DHT22;8808;52.478;13.378;2022-10-23T00:57:41;13.50;99.90
17381;DHT22;8808;52.478;13.378;2022-10-23T01:00:13;13.40;99.90
17381;DHT22;8808;52.478;13.378;2022-10-23T01:02:40;13.40;99.90
17381;DHT22;8808;52.478;13.378;2022-10-23T01:05:07;13.50;99.90
17381;DHT22;8808;52.478;13.378;2022-10-23T01:07:41;13.50;99.90
17381;DHT22;8808;52.478;13.378;2022-10-23T01:10:12;13.60;99.90
17381;DHT22;8808;52.478;13.378;2022-10-23T01:12:45;13.50;99.90
17381;DHT22;8808;52.478;13.378;2022-10-23T01:15:19;13.50;99.90
17381;DHT22;8808;52.478;13.378;2022-10-23T01:17:52;13.40;99.90
17381;DHT22;8808;52.478;13.378;2022-10-23T01:20:38;13.40;99.90
17381;DHT22;8808;52.478;13.378;2022-10-23T01:23:28;13.40;99.90
17381;DHT22;8808;52.478;13.378;2022-10-23T01:26:10;13.40;99.90
17381;DHT22;8808;52.478;13.378;2022-10-23T01:28:44;13.50;99.90
17381;DHT22;8808;52.478;13.378;2022-10-23T01:31:16;13.50;99.90
17381;DHT22;8808;52.478;13.378;2022-10-23T01:33:47;13.50;99.90
17381;DHT22;8808;52.478;13.378;2022-10-23T01:36:18;13.40;99.90
17381;DHT22;8808;52.478;13.378;2022-10-23T01:38:52;13.50;99.90
17381;DHT22;8808;52.478;13.378;2022-10-23T01:41:27;13.40;99.90
17381;DHT22;8808;52.478;13.378;2022-10-23T01:44:00;13.50;99.90
17381;DHT22;8808;52.478;13.378;2022-10-23T01:46:30;13.50;99.90
17381;DHT22;8808;52.478;13.378;2022-10-23T01:49:01;13.40;99.90
17381;DHT22;8808;52.478;13.378;2022-10-23T01:51:30;13.40;99.90
17381;DHT22;8808;52.478;13.378;2022-10-23T01:53:59;13.30;99.90
17381;DHT22;8808;52.478;13.378;2022-10-23T01:56:28;13.20;99.90
17381;DHT22;8808;52.478;13.378;2022-10-23T01:59:00;13.20;99.90
17381;DHT22;8808;52.478;13.378;2022-10-23T02:01:30;13.20;99.90
17381;DHT22;8808;52.478;13.378;2022-10-23T02:04:00;13.20;99.90
17381;DHT22;8808;52.478;13.378;2022-10-23T02:06:28;13.30;99.90
17381;DHT22;8808;52.478;13.378;2022-10-23T02:08:55;13.30;99.90
17381;DHT22;8808;52.478;13.378;2022-10-23T02:11:22;13.30;99.90
17381;DHT22;8808;52.478;13.378;2022-10-23T02:13:54;13.20;99.90
17381;DHT22;8808;52.478;13.378;2022-10-23T02:16:29;13.10;99.90
17381;DHT22;8808;52.478;13.378;2022-10-23T02:19:07;13.10;99.90
17381;DHT22;8808;52.478;13.378;2022-10-23T02:21:41;13.10;99.90
17381;DHT22;8808;52.478;13.378;2022-10-23T02:24:12;13.20;99.90
17381;DHT22;8808;52.478;13.378;2022-10-23T02:26:43;13.20;99.90
17381;DHT22;8808;52.478;13.378;2022-10-23T02:29:17;13.10;99.90
17381;DHT22;8808;52.478;13.378;2022-10-23T02:31:47;13.10;99.90
17381;DHT22;8808;52.478;13.378;2022-10-23T02:34:13;13.00;99.90
17381;DHT22;8808;52.478;13.378;2022-10-23T02:36:40;13.00;99.90
17381;DHT22;8808;52.478;13.378;2022-10-23T02:39:07;13.00;99.90
17381;DHT22;8808;52.478;13.378;2022-10-23T02:41:38;12.90;99.90
17381;DHT22;8808;52.478;13.378;2022-10-23T02:47:09;12.80;99.90
17381;DHT22;8808;52.478;13.378;2022-10-23T02:49:43;12.70;99.90
17381;DHT22;8808;52.478;13.378;2022-10-23T02:52:15;12.70;99.90
17381;DHT22;8808;52.478;13.378;2022-10-23T02:54:59;12.70;99.90
17381;DHT22;8808;52.478;13.378;2022-10-23T02:57:30;12.60;99.90
17381;DHT22;8808;52.478;13.378;2022-10-23T03:00:07;12.70;99.90
17381;DHT22;8808;52.478;13.378;2022-10-23T03:02:40;12.50;99.90
17381;DHT22;8808;52.478;13.378;2022-10-23T03:05:10;12.50;99.90
17381;DHT22;8808;52.478;13.378;2022-10-23T03:07:38;12.40;99.90
17381;DHT22;8808;52.478;13.378;2022-10-23T03:10:06;12.40;99.90
17381;DHT22;8808;52.478;13.378;2022-10-23T03:12:33;12.40;99.90
17381;DHT22;8808;52.478;13.378;2022-10-23T03:15:00;12.50;99.90
17381;DHT22;8808;52.478;13.378;2022-10-23T03:17:27;12.40;99.90
17381;DHT22;8808;52.478;13.378;2022-10-23T03:19:55;12.40;99.90
17381;DHT22;8808;52.478;13.378;2022-10-23T03:22:22;12.40;99.90
17381;DHT22;8808;52.478;13.378;2022-10-23T03:24:49;12.30;99.90
17381;DHT22;8808;52.478;13.378;2022-10-23T03:27:16;12.20;99.90
17381;DHT22;8808;52.478;13.378;2022-10-23T03:29:43;12.20;99.90
17381;DHT22;8808;52.478;13.378;2022-10-23T03:32:09;12.30;99.90
17381;DHT22;8808;52.478;13.378;2022-10-23T03:34:36;12.20;99.90
17381;DHT22;8808;52.478;13.378;2022-10-23T03:37:04;12.20;99.90
17381;DHT22;8808;52.478;13.378;2022-10-23T03:39:31;12.20;99.90
17381;DHT22;8808;52.478;13.378;2022-10-23T03:41:58;12.10;99.90
17381;DHT22;8808;52.478;13.378;2022-10-23T03:44:25;12.00;99.90
17381;DHT22;8808;52.478;13.378;2022-10-23T03:46:52;12.10;99.90
17381;DHT22;8808;52.478;13.378;2022-10-23T03:49:19;12.10;99.90
17381;DHT22;8808;52.478;13.378;2022-10-23T03:51:45;12.00;99.90
17381;DHT22;8808;52.478;13.378;2022-10-23T03:54:18;11.90;99.90
17381;DHT22;8808;52.478;13.378;2022-10-23T03:56:45;12.00;99.90
17381;DHT22;8808;52.478;13.378;2022-10-23T03:59:12;11.90;99.90
17381;DHT22;8808;52.478;13.378;2022-10-23T04:01:39;11.80;99.90
17381;DHT22;8808;52.478;13.378;2022-10-23T04:04:06;11.80;99.90
17381;DHT22;8808;52.478;13.378;2022-10-23T04:06:33;11.80;99.90
17381;DHT22;8808;52.478;13.378;2022-10-23T04:09:00;11.80;99.90
17381;DHT22;8808;52.478;13.378;2022-10-23T04:11:28;11.70;99.90
17381;DHT22;8808;52.478;13.378;2022-10-23T04:13:55;11.70;99.90
17381;DHT22;8808;52.478;13.378;2022-10-23T04:16:22;11.60;99.90
17381;DHT22;8808;52.478;13.378;2022-10-23T04:18:49;11.60;99.90
17381;DHT22;8808;52.478;13.378;2022-10-23T04:21:16;11.60;99.90
17381;DHT22;8808;52.478;13.378;2022-10-23T04:23:42;11.60;99.90
17381;DHT22;8808;52.478;13.378;2022-10-23T04:26:09;11.40;99.90
17381;DHT22;8808;52.478;13.378;2022-10-23T04:28:37;11.50;99.90
17381;DHT22;8808;52.478;13.378;2022-10-23T04:31:04;11.50;99.90
17381;DHT22;8808;52.478;13.378;2022-10-23T04:33:31;11.30;99.90
17381;DHT22;8808;52.478;13.378;2022-10-23T04:35:58;11.20;99.90
17381;DHT22;8808;52.478;13.378;2022-10-23T04:38:25;11.40;99.90
17381;DHT22;8808;52.478;13.378;2022-10-23T04:40:52;11.30;99.90
17381;DHT22;8808;52.478;13.378;2022-10-23T04:43:18;11.20;99.90
17381;DHT22;8808;52.478;13.378;2022-10-23T04:45:47;11.20;99.90
17381;DHT22;8808;52.478;13.378;2022-10-23T04:48:14;11.20;99.90
17381;DHT22;8808;52.478;13.378;2022-10-23T04:50:41;11.20;99.90
17381;DHT22;8808;52.478;13.378;2022-10-23T04:53:08;11.20;99.90
17381;DHT22;8808;52.478;13.378;2022-10-23T04:55:35;11.00;99.90
17381;DHT22;8808;52.478;13.378;2022-10-23T04:58:02;11.00;99.90
17381;DHT22;8808;52.478;13.378;2022-10-23T05:00:29;11.00;99.90
17381;DHT22;8808;52.478;13.378;2022-10-23T05:02:57;11.20;99.90
17381;DHT22;8808;52.478;13.378;2022-10-23T05:05:23;11.00;99.90
17381;DHT22;8808;52.478;13.378;2022-10-23T05:07:50;10.90;99.90
17381;DHT22;8808;52.478;13.378;2022-10-23T05:10:17;10.80;99.90
17381;DHT22;8808;52.478;13.378;2022-10-23T05:12:44;10.80;99.90
17381;DHT22;8808;52.478;13.378;2022-10-23T05:15:11;10.70;99.90
17381;DHT22;8808;52.478;13.378;2022-10-23T05:17:40;10.70;99.90
17381;DHT22;8808;52.478;13.378;2022-10-23T05:20:13;10.70;99.90
17381;DHT22;8808;52.478;13.378;2022-10-23T05:22:43;10.80;99.90
17381;DHT22;8808;52.478;13.378;2022-10-23T05:25:12;10.80;99.90
17381;DHT22;8808;52.478;13.378;2022-10-23T05:27:39;10.80;99.90
17381;DHT22;8808;52.478;13.378;2022-10-23T05:30:06;10.70;99.90
17381;DHT22;8808;52.478;13.378;2022-10-23T05:32:34;10.80;99.90
17381;DHT22;8808;52.478;13.378;2022-10-23T05:35:06;10.70;99.90
17381;DHT22;8808;52.478;13.378;2022-10-23T05:37:36;10.80;99.90
17381;DHT22;8808;52.478;13.378;2022-10-23T05:40:04;10.80;99.90
17381;DHT22;8808;52.478;13.378;2022-10-23T05:42:31;10.80;99.90
17381;DHT22;8808;52.478;13.378;2022-10-23T05:44:58;10.70;99.90
17381;DHT22;8808;52.478;13.378;2022-10-23T05:47:25;10.90;99.90
17381;DHT22;8808;52.478;13.378;2022-10-23T05:49:51;10.90;99.90
17381;DHT22;8808;52.478;13.378;2022-10-23T05:52:19;10.90;99.90
17381;DHT22;8808;52.478;13.378;2022-10-23T05:54:47;10.80;99.90
17381;DHT22;8808;52.478;13.378;2022-10-23T05:57:16;10.80;99.90
17381;DHT22;8808;52.478;13.378;2022-10-23T05:59:43;10.80;99.90
17381;DHT22;8808;52.478;13.378;2022-10-23T06:02:10;10.90;99.90
17381;DHT22;8808;52.478;13.378;2022-10-23T06:04:36;10.80;99.90
17381;DHT22;8808;52.478;13.378;2022-10-23T06:07:03;10.90;99.90
17381;DHT22;8808;52.478;13.378;2022-10-23T06:09:30;10.80;99.90
17381;DHT22;8808;52.478;13.378;2022-10-23T06:11:59;10.80;99.90
17381;DHT22;8808;52.478;13.378;2022-10-23T06:14:26;10.90;99.90
17381;DHT22;8808;52.478;13.378;2022-10-23T06:16:53;10.90;99.90
17381;DHT22;8808;52.478;13.378;2022-10-23T06:19:20;10.70;99.90
17381;DHT22;8808;52.478;13.378;2022-10-23T06:21:47;10.80;99.90
17381;DHT22;8808;52.478;13.378;2022-10-23T06:24:13;10.80;99.90
17381;DHT22;8808;52.478;13.378;2022-10-23T06:26:40;10.80;99.90
17381;DHT22;8808;52.478;13.378;2022-10-23T06:29:09;10.80;99.90
17381;DHT22;8808;52.478;13.378;2022-10-23T06:31:35;10.90;99.90
17381;DHT22;8808;52.478;13.378;2022-10-23T06:34:02;10.90;99.90
17381;DHT22;8808;52.478;13.378;2022-10-23T06:36:30;11.10;99.90
17381;DHT22;8808;52.478;13.378;2022-10-23T06:38:57;11.20;99.90
17381;DHT22;8808;52.478;13.378;2022-10-23T06:41:24;11.20;99.90
17381;DHT22;8808;52.478;13.378;2022-10-23T06:43:50;11.40;99.90
17381;DHT22;8808;52.478;13.378;2022-10-23T06:46:19;11.40;99.90
17381;DHT22;8808;52.478;13.378;2022-10-23T06:48:46;11.50;99.90
17381;DHT22;8808;52.478;13.378;2022-10-23T06:51:15;11.60;99.90
17381;DHT22;8808;52.478;13.378;2022-10-23T06:53:42;11.50;99.90
17381;DHT22;8808;52.478;13.378;2022-10-23T06:56:10;11.60;99.90
17381;DHT22;8808;52.478;13.378;2022-10-23T06:58:38;11.90;99.90
17381;DHT22;8808;52.478;13.378;2022-10-23T07:01:06;12.10;99.90
17381;DHT22;8808;52.478;13.378;2022-10-23T07:03:35;12.20;99.90
17381;DHT22;8808;52.478;13.378;2022-10-23T07:06:02;12.20;99.90
17381;DHT22;8808;52.478;13.378;2022-10-23T07:08:30;12.40;99.90
17381;DHT22;8808;52.478;13.378;2022-10-23T07:10:56;12.30;99.90
17381;DHT22;8808;52.478;13.378;2022-10-23T07:13:23;12.20;99.90
17381;DHT22;8808;52.478;13.378;2022-10-23T07:15:50;12.30;99.90
17381;DHT22;8808;52.478;13.378;2022-10-23T07:18:17;12.30;99.90
17381;DHT22;8808;52.478;13.378;2022-10-23T07:20:45;12.30;99.90
17381;DHT22;8808;52.478;13.378;2022-10-23T07:23:14;12.40;99.90
17381;DHT22;8808;52.478;13.378;2022-10-23T07:25:41;12.50;99.90
17381;DHT22;8808;52.478;13.378;2022-10-23T07:28:08;12.60;99.90
17381;DHT22;8808;52.478;13.378;2022-10-23T07:30:35;12.70;99.90
17381;DHT22;8808;52.478;13.378;2022-10-23T07:33:02;12.90;99.90
17381;DHT22;8808;52.478;13.378;2022-10-23T07:35:29;12.90;99.90
17381;DHT22;8808;52.478;13.378;2022-10-23T07:37:58;12.90;99.90
17381;DHT22;8808;52.478;13.378;2022-10-23T07:40:25;12.90;99.90
17381;DHT22;8808;52.478;13.378;2022-10-23T07:42:51;13.00;99.90
17381;DHT22;8808;52.478;13.378;2022-10-23T07:45:18;13.00;99.90
17381;DHT22;8808;52.478;13.378;2022-10-23T07:47:49;13.10;99.90
17381;DHT22;8808;52.478;13.378;2022-10-23T07:50:16;13.30;99.90
17381;DHT22;8808;52.478;13.378;2022-10-23T07:52:43;13.50;99.90
17381;DHT22;8808;52.478;13.378;2022-10-23T07:55:12;13.70;99.90
17381;DHT22;8808;52.478;13.378;2022-10-23T07:57:39;13.60;99.90
17381;DHT22;8808;52.478;13.378;2022-10-23T08:00:07;13.70;99.90
17381;DHT22;8808;52.478;13.378;2022-10-23T08:02:33;13.60;99.90
17381;DHT22;8808;52.478;13.378;2022-10-23T08:05:00;13.70;99.90
17381;DHT22;8808;52.478;13.378;2022-10-23T08:07:27;13.80;99.90
17381;DHT22;8808;52.478;13.378;2022-10-23T08:09:54;13.80;99.90
17381;DHT22;8808;52.478;13.378;2022-10-23T08:12:22;13.90;99.90
17381;DHT22;8808;52.478;13.378;2022-10-23T08:14:49;14.10;99.90
17381;DHT22;8808;52.478;13.378;2022-10-23T08:17:15;14.30;99.90
17381;DHT22;8808;52.478;13.378;2022-10-23T08:19:42;14.20;99.90
17381;DHT22;8808;52.478;13.378;2022-10-23T08:22:11;14.20;99.90
17381;DHT22;8808;52.478;13.378;2022-10-23T08:24:38;14.20;99.90
17381;DHT22;8808;52.478;13.378;2022-10-23T08:27:05;14.30;99.90
17381;DHT22;8808;52.478;13.378;2022-10-23T08:29:33;14.40;99.90
17381;DHT22;8808;52.478;13.378;2022-10-23T08:32:00;14.40;99.90
17381;DHT22;8808;52.478;13.378;2022-10-23T08:34:27;14.40;99.90
17381;DHT22;8808;52.478;13.378;2022-10-23T08:36:54;14.50;99.90
17381;DHT22;8808;52.478;13.378;2022-10-23T08:39:20;14.50;99.90
17381;DHT22;8808;52.478;13.378;2022-10-23T08:41:49;14.60;99.90
17381;DHT22;8808;52.478;13.378;2022-10-23T08:44:21;14.80;99.90
17381;DHT22;8808;52.478;13.378;2022-10-23T08:46:55;14.90;99.90
17381;DHT22;8808;52.478;13.378;2022-10-23T08:49:35;14.90;99.90
17381;DHT22;8808;52.478;13.378;2022-10-23T08:52:13;14.80;99.90
17381;DHT22;8808;52.478;13.378;2022-10-23T08:54:49;14.80;99.90
17381;DHT22;8808;52.478;13.378;2022-10-23T08:57:21;15.20;99.90
17381;DHT22;8808;52.478;13.378;2022-10-23T08:59:56;15.10;99.90
17381;DHT22;8808;52.478;13.378;2022-10-23T09:02:27;15.30;99.90
17381;DHT22;8808;52.478;13.378;2022-10-23T09:04:56;15.20;99.90
17381;DHT22;8808;52.478;13.378;2022-10-23T09:07:33;15.20;99.90
17381;DHT22;8808;52.478;13.378;2022-10-23T09:10:09;15.30;99.90
17381;DHT22;8808;52.478;13.378;2022-10-23T09:12:38;15.30;99.90
17381;DHT22;8808;52.478;13.378;2022-10-23T09:15:19;15.30;99.90
17381;DHT22;8808;52.478;13.378;2022-10-23T09:17:54;15.40;99.90
17381;DHT22;8808;52.478;13.378;2022-10-23T09:20:23;15.70;99.90
17381;DHT22;8808;52.478;13.378;2022-10-23T09:22:54;15.70;99.90
17381;DHT22;8808;52.478;13.378;2022-10-23T09:25:23;15.70;99.90
17381;DHT22;8808;52.478;13.378;2022-10-23T09:27:53;15.80;99.90
17381;DHT22;8808;52.478;13.378;2022-10-23T09:30:31;15.70;99.90
17381;DHT22;8808;52.478;13.378;2022-10-23T09:33:11;15.80;99.90
17381;DHT22;8808;52.478;13.378;2022-10-23T09:35:49;15.90;99.90
17381;DHT22;8808;52.478;13.378;2022-10-23T09:38:28;16.00;99.90
17381;DHT22;8808;52.478;13.378;2022-10-23T09:40:58;16.20;99.90
17381;DHT22;8808;52.478;13.378;2022-10-23T09:43:25;16.20;99.90
17381;DHT22;8808;52.478;13.378;2022-10-23T09:45:57;16.40;99.90
17381;DHT22;8808;52.478;13.378;2022-10-23T09:48:26;16.60;99.90
17381;DHT22;8808;52.478;13.378;2022-10-23T09:50:54;16.60;99.90
17381;DHT22;8808;52.478;13.378;2022-10-23T09:53:31;16.70;99.90
17381;DHT22;8808;52.478;13.378;2022-10-23T09:56:00;16.80;99.90
17381;DHT22;8808;52.478;13.378;2022-10-23T09:58:41;16.90;99.90
17381;DHT22;8808;52.478;13.378;2022-10-23T10:01:21;17.00;99.90
17381;DHT22;8808;52.478;13.378;2022-10-23T10:03:50;17.30;99.90
17381;DHT22;8808;52.478;13.378;2022-10-23T10:06:22;17.30;99.90
17381;DHT22;8808;52.478;13.378;2022-10-23T10:08:52;17.40;99.90
17381;DHT22;8808;52.478;13.378;2022-10-23T10:11:24;17.40;99.90
17381;DHT22;8808;52.478;13.378;2022-10-23T10:16:58;18.00;99.90
17381;DHT22;8808;52.478;13.378;2022-10-23T10:19:39;17.80;99.90
17381;DHT22;8808;52.478;13.378;2022-10-23T10:22:21;17.70;99.90
17381;DHT22;8808;52.478;13.378;2022-10-23T10:24:57;17.60;99.90
17381;DHT22;8808;52.478;13.378;2022-10-23T10:27:40;18.90;99.90
17381;DHT22;8808;52.478;13.378;2022-10-23T10:30:13;18.20;99.90
17381;DHT22;8808;52.478;13.378;2022-10-23T10:32:45;17.70;99.90
17381;DHT22;8808;52.478;13.378;2022-10-23T10:35:24;17.50;99.90
17381;DHT22;8808;52.478;13.378;2022-10-23T10:38:13;17.40;99.90
17381;DHT22;8808;52.478;13.378;2022-10-23T10:40:50;17.50;99.90
17381;DHT22;8808;52.478;13.378;2022-10-23T10:43:29;17.50;99.90
17381;DHT22;8808;52.478;13.378;2022-10-23T10:46:05;17.60;99.90
17381;DHT22;8808;52.478;13.378;2022-10-23T10:48:41;17.70;99.90
17381;DHT22;8808;52.478;13.378;2022-10-23T10:51:18;17.80;99.90
17381;DHT22;8808;52.478;13.378;2022-10-23T10:54:00;18.00;99.90
17381;DHT22;8808;52.478;13.378;2022-10-23T10:56:32;18.20;99.90
17381;DHT22;8808;52.478;13.378;2022-10-23T10:59:02;18.60;99.90
17381;DHT22;8808;52.478;13.378;2022-10-23T11:01:34;18.80;99.90
17381;DHT22;8808;52.478;13.378;2022-10-23T11:04:05;19.10;99.90
17381;DHT22;8808;52.478;13.378;2022-10-23T11:06:37;19.10;99.90
17381;DHT22;8808;52.478;13.378;2022-10-23T11:09:15;19.00;99.90
17381;DHT22;8808;52.478;13.378;2022-10-23T11:11:42;18.80;99.90
17381;DHT22;8808;52.478;13.378;2022-10-23T11:14:14;18.70;99.90
17381;DHT22;8808;52.478;13.378;2022-10-23T11:16:45;18.60;99.90
17381;DHT22;8808;52.478;13.378;2022-10-23T11:19:19;18.60;99.90
17381;DHT22;8808;52.478;13.378;2022-10-23T11:21:53;18.60;99.90
17381;DHT22;8808;52.478;13.378;2022-10-23T11:24:56;18.70;99.90
17381;DHT22;8808;52.478;13.378;2022-10-23T11:30:31;18.70;99.90
17381;DHT22;8808;52.478;13.378;2022-10-23T11:33:38;18.60;99.90
17381;DHT22;8808;52.478;13.378;2022-10-23T11:36:14;18.60;99.90
17381;DHT22;8808;52.478;13.378;2022-10-23T11:38:45;18.70;99.90
17381;DHT22;8808;52.478;13.378;2022-10-23T11:41:18;18.70;99.90
17381;DHT22;8808;52.478;13.378;2022-10-23T11:43:48;18.70;99.90
17381;DHT22;8808;52.478;13.378;2022-10-23T11:46:29;18.70;99.90
17381;DHT22;8808;52.478;13.378;2022-10-23T11:48:57;18.70;99.90
17381;DHT22;8808;52.478;13.378;2022-10-23T11:51:29;18.70;99.90
17381;DHT22;8808;52.478;13.378;2022-10-23T11:57:10;18.80;99.90
17381;DHT22;8808;52.478;13.378;2022-10-23T11:59:51;18.80;99.90
17381;DHT22;8808;52.478;13.378;2022-10-23T12:02:26;18.90;99.90
17381;DHT22;8808;52.478;13.378;2022-10-23T12:04:59;18.90;99.90
17381;DHT22;8808;52.478;13.378;2022-10-23T12:07:29;19.00;99.90
17381;DHT22;8808;52.478;13.378;2022-10-23T12:09:59;19.20;99.90
17381;DHT22;8808;52.478;13.378;2022-10-23T12:12:31;19.10;99.90
17381;DHT22;8808;52.478;13.378;2022-10-23T12:15:21;19.10;99.90
17381;DHT22;8808;52.478;13.378;2022-10-23T12:17:51;19.20;99.90
17381;DHT22;8808;52.478;13.378;2022-10-23T12:20:43;19.10;99.90
17381;DHT22;8808;52.478;13.378;2022-10-23T12:23:22;19.10;99.90
17381;DHT22;8808;52.478;13.378;2022-10-23T12:26:12;19.10;99.90
17381;DHT22;8808;52.478;13.378;2022-10-23T12:28:49;19.10;99.90
17381;DHT22;8808;52.478;13.378;2022-10-23T12:31:31;19.10;99.90
17381;DHT22;8808;52.478;13.378;2022-10-23T12:34:06;19.00;99.90
17381;DHT22;8808;52.478;13.378;2022-10-23T12:36:52;19.00;99.90
17381;DHT22;8808;52.478;13.378;2022-10-23T12:39:28;18.90;99.90
17381;DHT22;8808;52.478;13.378;2022-10-23T12:41:55;18.90;99.90
17381;DHT22;8808;52.478;13.378;2022-10-23T12:44:24;18.90;99.90
17381;DHT22;8808;52.478;13.378;2022-10-23T12:46:54;18.80;99.90
17381;DHT22;8808;52.478;13.378;2022-10-23T12:49:23;18.80;99.90
17381;DHT22;8808;52.478;13.378;2022-10-23T12:51:55;18.80;99.90
17381;DHT22;8808;52.478;13.378;2022-10-23T12:54:22;18.70;99.90
17381;DHT22;8808;52.478;13.378;2022-10-23T12:56:49;18.70;99.90
17381;DHT22;8808;52.478;13.378;2022-10-23T12:59:19;18.70;99.90
17381;DHT22;8808;52.478;13.378;2022-10-23T13:01:49;18.70;99.90
17381;DHT22;8808;52.478;13.378;2022-10-23T13:04:22;18.70;99.90
17381;DHT22;8808;52.478;13.378;2022-10-23T13:06:51;18.60;99.90
17381;DHT22;8808;52.478;13.378;2022-10-23T13:09:22;18.60;99.90
17381;DHT22;8808;52.478;13.378;2022-10-23T13:11:50;18.60;99.90
17381;DHT22;8808;52.478;13.378;2022-10-23T13:14:30;18.60;99.90
17381;DHT22;8808;52.478;13.378;2022-10-23T13:17:04;18.60;99.90
17381;DHT22;8808;52.478;13.378;2022-10-23T13:19:31;18.60;99.90
17381;DHT22;8808;52.478;13.378;2022-10-23T13:21:59;18.50;99.90
17381;DHT22;8808;52.478;13.378;2022-10-23T13:24:27;18.60;99.90
17381;DHT22;8808;52.478;13.378;2022-10-23T13:26:56;18.50;99.90
17381;DHT22;8808;52.478;13.378;2022-10-23T13:29:25;18.50;99.90
17381;DHT22;8808;52.478;13.378;2022-10-23T13:31:52;18.40;99.90
17381;DHT22;8808;52.478;13.378;2022-10-23T13:34:25;18.40;99.90
17381;DHT22;8808;52.478;13.378;2022-10-23T13:36:59;18.40;99.90
17381;DHT22;8808;52.478;13.378;2022-10-23T13:39:28;18.40;99.90
17381;DHT22;8808;52.478;13.378;2022-10-23T13:41:57;18.50;99.90
17381;DHT22;8808;52.478;13.378;2022-10-23T13:44:25;18.40;99.90
17381;DHT22;8808;52.478;13.378;2022-10-23T13:46:52;18.40;99.90
17381;DHT22;8808;52.478;13.378;2022-10-23T13:49:19;18.50;99.90
17381;DHT22;8808;52.478;13.378;2022-10-23T13:51:49;18.50;99.90
17381;DHT22;8808;52.478;13.378;2022-10-23T13:54:19;18.40;99.90
17381;DHT22;8808;52.478;13.378;2022-10-23T13:56:46;18.40;99.90
17381;DHT22;8808;52.478;13.378;2022-10-23T13:59:13;18.40;99.90
17381;DHT22;8808;52.478;13.378;2022-10-23T14:01:41;18.40;99.90
17381;DHT22;8808;52.478;13.378;2022-10-23T14:04:11;18.40;99.90
17381;DHT22;8808;52.478;13.378;2022-10-23T14:06:38;18.40;99.90
17381;DHT22;8808;52.478;13.378;2022-10-23T14:09:08;18.40;99.90
17381;DHT22;8808;52.478;13.378;2022-10-23T14:11:36;18.30;99.90
17381;DHT22;8808;52.478;13.378;2022-10-23T14:14:02;18.40;99.90
17381;DHT22;8808;52.478;13.378;2022-10-23T14:16:29;18.30;99.90
17381;DHT22;8808;52.478;13.378;2022-10-23T14:18:56;18.30;99.90
17381;DHT22;8808;52.478;13.378;2022-10-23T14:21:23;18.30;99.90
17381;DHT22;8808;52.478;13.378;2022-10-23T14:23:52;18.30;99.90
17381;DHT22;8808;52.478;13.378;2022-10-23T14:26:22;18.20;99.90
17381;DHT22;8808;52.478;13.378;2022-10-23T14:28:51;18.20;99.90
17381;DHT22;8808;52.478;13.378;2022-10-23T14:31:20;18.10;99.90
17381;DHT22;8808;52.478;13.378;2022-10-23T14:33:51;18.20;99.90
17381;DHT22;8808;52.478;13.378;2022-10-23T14:36:18;18.20;99.90
17381;DHT22;8808;52.478;13.378;2022-10-23T14:38:45;18.10;99.90
17381;DHT22;8808;52.478;13.378;2022-10-23T14:41:13;18.10;99.90
17381;DHT22;8808;52.478;13.378;2022-10-23T14:43:41;18.10;99.90
17381;DHT22;8808;52.478;13.378;2022-10-23T14:46:09;18.10;99.90
17381;DHT22;8808;52.478;13.378;2022-10-23T14:48:36;18.10;99.90
17381;DHT22;8808;52.478;13.378;2022-10-23T14:51:05;18.10;99.90
17381;DHT22;8808;52.478;13.378;2022-10-23T14:53:32;18.00;99.90
17381;DHT22;8808;52.478;13.378;2022-10-23T14:56:01;18.00;99.90
17381;DHT22;8808;52.478;13.378;2022-10-23T14:58:27;18.00;99.90
17381;DHT22;8808;52.478;13.378;2022-10-23T15:00:59;18.00;99.90
17381;DHT22;8808;52.478;13.378;2022-10-23T15:03:27;18.00;99.90
17381;DHT22;8808;52.478;13.378;2022-10-23T15:05:54;18.00;99.90
17381;DHT22;8808;52.478;13.378;2022-10-23T15:08:22;17.90;99.90
17381;DHT22;8808;52.478;13.378;2022-10-23T15:10:49;17.90;99.90
17381;DHT22;8808;52.478;13.378;2022-10-23T15:13:16;17.90;99.90
17381;DHT22;8808;52.478;13.378;2022-10-23T15:15:44;17.90;99.90
17381;DHT22;8808;52.478;13.378;2022-10-23T15:18:13;17.90;99.90
17381;DHT22;8808;52.478;13.378;2022-10-23T15:20:40;17.90;99.90
17381;DHT22;8808;52.478;13.378;2022-10-23T15:23:07;17.70;99.90
17381;DHT22;8808;52.478;13.378;2022-10-23T15:25:34;17.70;99.90
17381;DHT22;8808;52.478;13.378;2022-10-23T15:28:00;17.60;99.90
17381;DHT22;8808;52.478;13.378;2022-10-23T15:30:27;17.50;99.90
17381;DHT22;8808;52.478;13.378;2022-10-23T15:32:54;17.60;99.90
17381;DHT22;8808;52.478;13.378;2022-10-23T15:35:22;17.50;99.90
17381;DHT22;8808;52.478;13.378;2022-10-23T15:37:50;17.50;99.90
17381;DHT22;8808;52.478;13.378;2022-10-23T15:40:16;17.50;99.90
17381;DHT22;8808;52.478;13.378;2022-10-23T15:42:43;17.40;99.90
17381;DHT22;8808;52.478;13.378;2022-10-23T15:45:12;17.30;99.90
17381;DHT22;8808;52.478;13.378;2022-10-23T15:47:39;17.40;99.90
17381;DHT22;8808;52.478;13.378;2022-10-23T15:50:07;17.40;99.90
17381;DHT22;8808;52.478;13.378;2022-10-23T15:52:35;17.30;99.90
17381;DHT22;8808;52.478;13.378;2022-10-23T15:55:02;17.30;99.90
17381;DHT22;8808;52.478;13.378;2022-10-23T15:57:29;17.30;99.90
17381;DHT22;8808;52.478;13.378;2022-10-23T15:59:56;17.30;99.90